Time;durP1;ratioP1;P1;durP2;ratioP2;P2;SDS_P1;SDS_P2;PMS_P1;PMS_P2;Temp;Humidity;BMP_temperature;BMP_pressure;BME280_temperature;BME280_humidity;BME280_pressure;Samples;Min_cycle;Max_cycle;Signal;HPM_P1;HPM_P2
2022/07/06 00:01:24;;;;;;;12.57;6.60;;;24.70;99.90;;;;;;6346356;22;20014;-79
2022/07/06 00:04:27;;;;;;;8.13;6.18;;;24.60;99.90;;;;;;6345807;22;20026;-79
2022/07/06 00:07:31;;;;;;;14.07;6.82;;;24.50;99.90;;;;;;6346314;22;20018;-79
2022/07/06 00:10:35;;;;;;;12.35;6.50;;;24.40;99.90;;;;;;6346153;22;20014;-79
2022/07/06 00:13:40;;;;;;;11.35;6.25;;;24.30;99.90;;;;;;6326871;22;20018;-79
2022/07/06 00:16:44;;;;;;;12.07;7.53;;;24.30;99.90;;;;;;6327295;22;20068;-79
2022/07/06 00:19:48;;;;;;;15.68;6.80;;;24.20;99.90;;;;;;6346506;22;20010;-78
2022/07/06 00:22:52;;;;;;;12.95;6.35;;;24.10;99.90;;;;;;6339974;22;20338;-79
2022/07/06 00:25:56;;;;;;;15.27;6.18;;;24.10;99.90;;;;;;6346127;22;20017;-79
2022/07/06 00:29:00;;;;;;;11.63;6.20;;;24.10;99.90;;;;;;6346076;22;20018;-79
2022/07/06 00:32:04;;;;;;;11.75;5.82;;;24.10;99.90;;;;;;6327011;22;20022;-79
2022/07/06 00:35:08;;;;;;;15.10;7.38;;;24.10;99.90;;;;;;6345465;22;20017;-79
2022/07/06 00:38:12;;;;;;;11.27;6.60;;;24.10;99.90;;;;;;6327245;22;20014;-79
2022/07/06 00:41:17;;;;;;;10.40;6.47;;;24.10;99.90;;;;;;6326911;22;20032;-79
2022/07/06 00:44:21;;;;;;;13.57;6.85;;;24.00;99.90;;;;;;6326245;22;20030;-78
2022/07/06 00:47:25;;;;;;;12.98;7.00;;;24.00;99.90;;;;;;6346007;22;20013;-79
2022/07/06 00:50:31;;;;;;;9.45;6.88;;;24.00;99.90;;;;;;6326697;22;20349;-79
2022/07/06 00:53:37;;;;;;;12.82;6.40;;;23.90;99.90;;;;;;6345480;22;20013;-79
2022/07/06 00:56:42;;;;;;;13.50;7.53;;;23.80;99.90;;;;;;6326877;22;20017;-79
2022/07/06 00:59:46;;;;;;;11.73;6.70;;;23.70;99.90;;;;;;6326685;22;20030;-79
2022/07/06 01:02:52;;;;;;;13.02;7.57;;;23.60;99.90;;;;;;6346106;22;20022;-78
2022/07/06 01:05:56;;;;;;;11.57;7.18;;;23.60;99.90;;;;;;6345899;22;20014;-79
2022/07/06 01:09:00;;;;;;;13.73;7.05;;;23.60;99.90;;;;;;6326404;22;20013;-78
2022/07/06 01:12:05;;;;;;;13.95;6.90;;;23.50;99.90;;;;;;6346009;22;20026;-79
2022/07/06 01:15:13;;;;;;;10.20;6.43;;;23.50;99.90;;;;;;6325978;22;20013;-79
2022/07/06 01:18:18;;;;;;;13.00;7.10;;;23.40;99.90;;;;;;6326597;22;20013;-78
2022/07/06 01:21:22;;;;;;;12.25;6.97;;;23.30;99.90;;;;;;6345738;22;20018;-79
2022/07/06 01:24:26;;;;;;;13.68;8.02;;;23.10;99.90;;;;;;6345151;22;20022;-78
2022/07/06 01:27:31;;;;;;;16.50;8.55;;;23.10;99.90;;;;;;6345671;22;20342;-79
2022/07/06 01:30:35;;;;;;;10.20;7.68;;;23.00;99.90;;;;;;6326404;22;20014;-79
2022/07/06 01:33:39;;;;;;;15.82;8.50;;;22.90;99.90;;;;;;6325886;22;20014;-79
2022/07/06 01:36:43;;;;;;;12.23;7.72;;;22.90;99.90;;;;;;6345937;22;20352;-79
2022/07/06 01:39:48;;;;;;;12.23;7.53;;;23.00;99.90;;;;;;6326744;22;20022;-79
2022/07/06 01:42:52;;;;;;;21.42;7.95;;;23.00;99.90;;;;;;6345724;22;20030;-79
2022/07/06 01:45:56;;;;;;;19.00;8.05;;;23.00;99.90;;;;;;6326427;22;20018;-79
2022/07/06 01:49:01;;;;;;;12.00;7.53;;;23.00;99.90;;;;;;6345729;22;20276;-79
2022/07/06 01:52:05;;;;;;;15.48;8.45;;;22.90;99.90;;;;;;6308121;22;20033;-79
2022/07/06 01:55:10;;;;;;;10.70;7.72;;;23.00;99.90;;;;;;6345213;22;20034;-79
2022/07/06 01:58:15;;;;;;;13.00;7.47;;;23.00;99.90;;;;;;6326489;22;20065;-79
2022/07/06 02:01:20;;;;;;;16.15;7.80;;;23.00;99.90;;;;;;6326386;22;20022;-79
2022/07/06 02:04:24;;;;;;;13.98;6.78;;;23.00;99.90;;;;;;6325872;22;20460;-79
2022/07/06 02:07:28;;;;;;;9.75;7.25;;;23.00;99.90;;;;;;6326440;22;20276;-79
2022/07/06 02:10:32;;;;;;;14.85;7.28;;;23.00;99.90;;;;;;6326192;22;20018;-79
2022/07/06 02:13:37;;;;;;;14.80;6.95;;;23.00;99.90;;;;;;6345106;22;20018;-78
2022/07/06 02:16:43;;;;;;;11.88;7.43;;;23.10;99.90;;;;;;6345460;22;20018;-79
2022/07/06 02:19:47;;;;;;;15.40;6.53;;;23.10;99.90;;;;;;6345626;22;20254;-79
2022/07/06 02:22:52;;;;;;;13.55;7.40;;;23.20;99.90;;;;;;6320051;22;20018;-78
2022/07/06 02:25:56;;;;;;;13.50;7.07;;;23.20;99.90;;;;;;6326551;22;20014;-79
2022/07/06 02:29:01;;;;;;;11.07;6.43;;;23.10;99.90;;;;;;6327949;22;20010;-79
2022/07/06 02:32:05;;;;;;;10.48;6.32;;;23.10;99.90;;;;;;6327996;22;20022;-79
2022/07/06 02:35:09;;;;;;;13.82;6.70;;;23.10;99.90;;;;;;6346634;22;20013;-79
2022/07/06 02:38:13;;;;;;;8.43;6.50;;;23.10;99.90;;;;;;6328122;22;20022;-79
2022/07/06 02:41:18;;;;;;;12.90;6.97;;;23.10;99.90;;;;;;6328013;22;20065;-79
2022/07/06 02:44:22;;;;;;;15.00;6.68;;;23.10;99.90;;;;;;6327527;22;20272;-79
2022/07/06 02:47:26;;;;;;;11.32;5.97;;;23.20;99.90;;;;;;6328034;22;20334;-79
2022/07/06 02:50:31;;;;;;;10.80;7.72;;;23.10;99.90;;;;;;6327749;22;20014;-78
2022/07/06 02:53:35;;;;;;;12.30;7.57;;;23.10;99.90;;;;;;6327450;22;20017;-78
2022/07/06 02:56:39;;;;;;;10.73;7.22;;;22.90;99.90;;;;;;6328273;22;20009;-78
2022/07/06 02:59:45;;;;;;;11.40;7.53;;;22.70;99.90;;;;;;6310911;22;20365;-77
2022/07/06 03:02:50;;;;;;;10.52;8.00;;;22.40;99.90;;;;;;6309962;22;20029;-78
2022/07/06 03:05:54;;;;;;;14.02;8.52;;;22.30;99.90;;;;;;6327796;22;20030;-79
2022/07/06 03:08:58;;;;;;;17.58;9.82;;;22.20;99.90;;;;;;6310105;22;20010;-79
2022/07/06 03:12:03;;;;;;;14.75;8.55;;;22.20;99.90;;;;;;6327802;22;20049;-79
2022/07/06 03:15:10;;;;;;;20.33;8.95;;;22.10;99.90;;;;;;6327240;22;20013;-78
2022/07/06 03:18:16;;;;;;;13.60;9.40;;;22.10;99.90;;;;;;6310488;22;20030;-79
2022/07/06 03:21:20;;;;;;;15.52;8.75;;;22.10;99.90;;;;;;6309787;22;20457;-79
2022/07/06 03:24:24;;;;;;;16.60;8.60;;;22.10;99.90;;;;;;6327078;22;20022;-78
2022/07/06 03:27:28;;;;;;;16.25;8.48;;;22.10;99.90;;;;;;6346775;22;20022;-79
2022/07/06 03:30:32;;;;;;;16.67;10.23;;;22.10;99.90;;;;;;6327603;22;20014;-79
2022/07/06 03:33:37;;;;;;;11.57;9.05;;;22.10;99.90;;;;;;6326969;22;20022;-79
2022/07/06 03:36:41;;;;;;;13.77;8.90;;;22.10;99.90;;;;;;6327630;22;20340;-79
2022/07/06 03:39:46;;;;;;;13.80;8.55;;;22.10;99.90;;;;;;6327306;22;20010;-79
2022/07/06 03:42:50;;;;;;;15.10;8.05;;;22.10;99.90;;;;;;6327628;22;20017;-79
2022/07/06 03:45:54;;;;;;;14.52;8.73;;;22.10;99.90;;;;;;6327405;22;20025;-79
2022/07/06 03:48:59;;;;;;;13.43;8.75;;;22.10;99.90;;;;;;6327239;22;20022;-78
2022/07/06 03:52:03;;;;;;;13.30;8.43;;;22.10;99.90;;;;;;6309403;22;20017;-79
2022/07/06 03:55:13;;;;;;;18.90;10.55;;;22.10;99.90;;;;;;6326735;22;20020;-79
2022/07/06 03:58:21;;;;;;;14.00;8.40;;;22.20;99.90;;;;;;6327116;22;20034;-78
2022/07/06 04:01:25;;;;;;;19.58;8.10;;;22.20;99.90;;;;;;6327259;22;20026;-78
2022/07/06 04:04:29;;;;;;;12.23;7.65;;;22.20;99.90;;;;;;6326763;22;20013;-78
2022/07/06 04:07:34;;;;;;;14.70;7.20;;;22.20;99.90;;;;;;6327146;22;20018;-79
2022/07/06 04:10:38;;;;;;;15.93;7.72;;;22.20;99.90;;;;;;6346316;22;20018;-79
2022/07/06 04:13:42;;;;;;;21.50;8.10;;;22.30;99.90;;;;;;6326648;22;20022;-79
2022/07/06 04:16:46;;;;;;;16.30;9.05;;;22.20;99.90;;;;;;6309490;22;20013;-78
2022/07/06 04:19:51;;;;;;;13.75;8.23;;;22.10;99.90;;;;;;6309921;22;20170;-78
2022/07/06 04:22:55;;;;;;;11.63;7.93;;;22.20;99.90;;;;;;6302727;22;20030;-78
2022/07/06 04:26:01;;;;;;;12.07;8.15;;;22.20;99.90;;;;;;6327020;22;20018;-79
2022/07/06 04:29:08;;;;;;;21.88;8.65;;;22.30;99.90;;;;;;6327118;22;20017;-79
2022/07/06 04:32:12;;;;;;;20.67;9.05;;;22.40;99.90;;;;;;6323602;22;20021;-79
2022/07/06 04:35:16;;;;;;;11.95;7.57;;;22.90;99.90;;;;;;6326406;22;20017;-79
2022/07/06 04:38:23;;;;;;;17.58;7.20;;;24.20;99.90;;;;;;6327062;22;20112;-79
2022/07/06 04:41:28;;;;;;;17.65;7.45;;;25.60;99.90;;;;;;6309228;22;20026;-79
2022/07/06 04:44:34;;;;;;;13.32;7.20;;;27.00;99.90;;;;;;6326579;22;20013;-79
2022/07/06 04:47:37;;;;;;;14.48;7.18;;;28.10;99.90;;;;;;6326822;22;20018;-79
2022/07/06 04:50:41;;;;;;;15.43;6.70;;;28.70;99.90;;;;;;6326391;22;20469;-79
2022/07/06 04:53:51;;;;;;;12.85;7.00;;;29.30;99.90;;;;;;6326310;22;20322;-79
2022/07/06 04:56:56;;;;;;;16.42;6.90;;;28.20;99.90;;;;;;6326819;22;20009;-79
2022/07/06 05:00:01;;;;;;;33.90;7.68;;;29.20;99.90;;;;;;6326685;22;20018;-79
2022/07/06 05:03:07;;;;;;;23.55;6.72;;;30.30;99.90;;;;;;6308776;22;20017;-80
2022/07/06 05:06:11;;;;;;;21.02;6.70;;;31.40;99.90;;;;;;6327757;22;20029;-79
2022/07/06 05:09:16;;;;;;;12.10;6.60;;;31.30;99.90;;;;;;6328253;22;20014;-79
2022/07/06 05:12:23;;;;;;;14.77;6.40;;;31.20;99.90;;;;;;6327529;22;20473;-79
2022/07/06 05:15:27;;;;;;;12.25;6.13;;;30.90;99.90;;;;;;6326958;22;20018;-80
2022/07/06 05:18:32;;;;;;;14.75;6.30;;;31.10;99.90;;;;;;6327674;22;20018;-79
2022/07/06 05:21:37;;;;;;;16.02;5.97;;;31.20;99.90;;;;;;6325120;22;20013;-79
2022/07/06 05:24:42;;;;;;;10.07;5.90;;;29.80;99.90;;;;;;6325505;22;20042;-79
2022/07/06 05:27:47;;;;;;;10.57;5.70;;;29.80;99.90;;;;;;6326558;22;20018;-79
2022/07/06 05:30:51;;;;;;;12.80;6.00;;;30.70;99.90;;;;;;6325941;22;20022;-79
2022/07/06 05:33:55;;;;;;;9.13;5.22;;;31.70;99.90;;;;;;6325688;22;20014;-79
2022/07/06 05:36:59;;;;;;;11.63;5.80;;;31.80;99.90;;;;;;6326679;22;20034;-79
2022/07/06 05:40:05;;;;;;;12.13;6.57;;;32.30;99.90;;;;;;6326737;22;20014;-79
2022/07/06 05:43:09;;;;;;;17.15;6.15;;;32.10;99.90;;;;;;6326656;22;20014;-80
2022/07/06 05:46:14;;;;;;;9.68;5.70;;;32.60;99.90;;;;;;6326837;22;20022;-79
2022/07/06 05:52:47;;;;;;;13.05;5.35;;;33.60;97.60;;;;;;6306539;22;20350;-79
2022/07/06 05:55:51;;;;;;;13.32;4.75;;;33.90;96.40;;;;;;6326640;22;20041;-79
2022/07/06 05:58:57;;;;;;;13.07;5.03;;;33.30;96.60;;;;;;6345761;22;20021;-79
2022/07/06 06:02:02;;;;;;;17.10;5.22;;;33.60;96.10;;;;;;6346440;22;20010;-79
2022/07/06 06:05:10;;;;;;;9.57;4.90;;;34.10;95.80;;;;;;6327647;22;20014;-79
2022/07/06 06:08:15;;;;;;;13.95;4.70;;;34.10;95.40;;;;;;6328705;22;20037;-79
2022/07/06 06:11:19;;;;;;;13.88;5.07;;;33.70;95.40;;;;;;6328245;22;20022;-79
2022/07/06 06:14:23;;;;;;;14.30;5.32;;;33.80;95.40;;;;;;6347089;22;20010;-79
2022/07/06 06:17:27;;;;;;;15.00;4.97;;;33.30;95.60;;;;;;6328473;22;20360;-79
2022/07/06 06:20:34;;;;;;;12.10;4.47;;;32.20;96.20;;;;;;6310424;22;20326;-79
2022/07/06 06:23:38;;;;;;;7.88;4.53;;;31.60;96.70;;;;;;6318460;22;20025;-79
2022/07/06 06:26:43;;;;;;;15.20;4.60;;;32.40;96.60;;;;;;6328521;22;20010;-80
2022/07/06 06:29:47;;;;;;;8.85;4.95;;;33.10;95.80;;;;;;6347424;22;20014;-79
2022/07/06 06:32:51;;;;;;;13.90;4.40;;;32.70;95.80;;;;;;6345578;22;20018;-79
2022/07/06 06:35:55;;;;;;;12.77;5.03;;;32.40;96.20;;;;;;6347038;22;20013;-80
2022/07/06 06:38:59;;;;;;;7.15;4.40;;;32.30;96.30;;;;;;6347021;22;20408;-78
2022/07/06 06:42:04;;;;;;;8.38;4.40;;;32.50;95.90;;;;;;6328004;22;20017;-78
2022/07/06 06:45:11;;;;;;;10.88;4.85;;;32.60;95.70;;;;;;6310052;22;20460;-79
2022/07/06 06:48:17;;;;;;;6.80;4.03;;;32.10;96.30;;;;;;6346904;22;20018;-78
2022/07/06 06:51:21;;;;;;;8.07;4.50;;;32.80;95.50;;;;;;6346237;22;20014;-78
2022/07/06 06:54:25;;;;;;;9.52;4.20;;;33.20;94.70;;;;;;6346034;22;20022;-78
2022/07/06 06:57:29;;;;;;;13.30;4.00;;;33.40;94.70;;;;;;6327654;22;20013;-79
2022/07/06 07:00:33;;;;;;;9.52;3.90;;;34.70;93.70;;;;;;6347006;22;20013;-78
2022/07/06 07:03:37;;;;;;;12.23;4.30;;;35.30;92.60;;;;;;6345477;22;20014;-79
2022/07/06 07:06:41;;;;;;;10.20;4.07;;;35.30;92.50;;;;;;6346885;22;20014;-78
2022/07/06 07:09:45;;;;;;;10.13;3.60;;;35.10;92.20;;;;;;6347362;22;20026;-78
2022/07/06 07:12:49;;;;;;;14.32;4.38;;;35.70;91.80;;;;;;6326985;22;20017;-78
2022/07/06 07:15:53;;;;;;;7.93;3.88;;;35.40;91.70;;;;;;6346568;22;20014;-78
2022/07/06 07:18:57;;;;;;;9.43;3.55;;;36.50;90.90;;;;;;6346670;22;20023;-77
2022/07/06 07:22:01;;;;;;;6.50;3.47;;;35.50;90.70;;;;;;6343908;22;20018;-79
2022/07/06 07:25:07;;;;;;;11.05;4.18;;;36.30;90.40;;;;;;6346513;22;20018;-79
2022/07/06 07:28:11;;;;;;;8.77;3.53;;;37.30;89.30;;;;;;6347304;22;20022;-78
2022/07/06 07:31:16;;;;;;;9.75;3.72;;;38.00;86.70;;;;;;6347677;22;20017;-78
2022/07/06 07:34:20;;;;;;;9.13;3.40;;;38.50;85.40;;;;;;6346502;22;20014;-78
2022/07/06 07:37:24;;;;;;;8.30;3.28;;;38.20;84.10;;;;;;6327969;22;20014;-79
2022/07/06 07:40:28;;;;;;;6.25;3.25;;;39.20;82.60;;;;;;6347441;22;20018;-78
2022/07/06 07:43:32;;;;;;;14.15;3.90;;;39.40;82.40;;;;;;6346864;22;20022;-78
2022/07/06 07:46:36;;;;;;;11.70;4.05;;;37.10;84.30;;;;;;6328176;22;20042;-78
2022/07/06 07:49:40;;;;;;;8.27;3.80;;;37.20;85.00;;;;;;6347199;22;20468;-79
2022/07/06 07:52:44;;;;;;;10.25;3.25;;;38.50;82.70;;;;;;6347431;22;20017;-77
2022/07/06 07:55:48;;;;;;;6.40;3.33;;;37.10;83.30;;;;;;6347333;22;20045;-78
2022/07/06 07:58:52;;;;;;;8.35;3.15;;;37.10;84.00;;;;;;6346528;22;20017;-78
2022/07/06 08:02:00;;;;;;;11.25;3.90;;;38.60;82.20;;;;;;6311252;22;20017;-78
2022/07/06 08:05:04;;;;;;;12.23;4.05;;;35.40;84.60;;;;;;6345357;22;20252;-77
2022/07/06 08:08:10;;;;;;;10.75;3.65;;;37.40;83.50;;;;;;6346040;22;20021;-78
2022/07/06 08:11:14;;;;;;;5.38;3.50;;;34.60;86.00;;;;;;6345827;22;20026;-77
2022/07/06 08:14:18;;;;;;;12.40;3.58;;;35.90;86.00;;;;;;6326814;22;20034;-78
2022/07/06 08:17:22;;;;;;;9.88;3.35;;;38.20;83.30;;;;;;6346096;22;20061;-79
2022/07/06 08:20:26;;;;;;;7.45;3.10;;;38.90;80.80;;;;;;6326934;22;20018;-78
2022/07/06 08:23:30;;;;;;;6.40;3.72;;;39.40;79.60;;;;;;6336392;22;20026;-78
2022/07/06 08:26:34;;;;;;;4.82;2.80;;;40.80;78.30;;;;;;6346265;22;20017;-78
2022/07/06 08:29:38;;;;;;;12.90;4.07;;;41.40;76.80;;;;;;6346174;22;20069;-79
2022/07/06 08:32:43;;;;;;;10.13;2.80;;;41.10;75.70;;;;;;6346134;22;20065;-79
2022/07/06 08:35:47;;;;;;;3.85;2.85;;;40.90;76.10;;;;;;6327090;22;20338;-78
2022/07/06 08:38:51;;;;;;;9.35;3.10;;;42.40;74.90;;;;;;6346184;22;20018;-79
2022/07/06 08:41:58;;;;;;;8.52;3.00;;;43.10;72.00;;;;;;6346316;22;20025;-79
2022/07/06 08:45:05;;;;;;;6.75;3.13;;;41.10;73.70;;;;;;6345299;22;20326;-79
2022/07/06 08:48:11;;;;;;;9.30;2.83;;;39.30;76.20;;;;;;6346916;22;20014;-78
2022/07/06 08:51:16;;;;;;;5.78;2.78;;;40.60;74.00;;;;;;6346628;22;20017;-79
2022/07/06 08:54:22;;;;;;;8.02;2.95;;;41.90;72.60;;;;;;6345471;22;20473;-78
2022/07/06 08:57:27;;;;;;;11.02;3.70;;;41.80;72.20;;;;;;6345966;22;20014;-79
2022/07/06 09:00:32;;;;;;;6.90;2.92;;;37.70;74.90;;;;;;6344965;22;20029;-81
2022/07/06 09:03:38;;;;;;;7.95;3.65;;;39.90;74.40;;;;;;6344904;22;20061;-78
2022/07/06 09:06:45;;;;;;;7.95;2.70;;;39.20;74.10;;;;;;6345192;22;20017;-79
2022/07/06 09:09:51;;;;;;;6.65;2.70;;;41.00;73.30;;;;;;6308595;22;20461;-79
2022/07/06 09:13:05;;;;;;;15.75;3.10;;;42.90;71.40;;;;;;6345430;22;20017;-78
2022/07/06 09:16:14;;;;;;;7.93;2.53;;;45.00;69.40;;;;;;6319148;22;20018;-79
2022/07/06 09:19:18;;;;;;;9.13;2.58;;;45.50;67.50;;;;;;6346941;22;20464;-79
2022/07/06 09:22:34;;;;;;;10.38;2.60;;;46.40;66.30;;;;;;6342155;22;20018;-79
2022/07/06 09:25:37;;;;;;;4.30;2.08;;;48.00;64.70;;;;;;6325651;22;20018;-80
2022/07/06 09:28:44;;;;;;;6.60;2.08;;;49.20;63.00;;;;;;6334955;22;20019;-81
2022/07/06 09:32:06;;;;;;;7.68;2.30;;;50.10;61.90;;;;;;6345449;22;20346;-80
2022/07/06 09:35:22;;;;;;;4.35;2.40;;;51.20;59.40;;;;;;6326152;22;20014;-79
2022/07/06 09:38:26;;;;;;;22.27;2.67;;;50.80;59.20;;;;;;6347630;22;20022;-82
2022/07/06 09:41:31;;;;;;;7.45;2.28;;;51.10;58.80;;;;;;6347911;22;20341;-80
2022/07/06 09:44:41;;;;;;;5.35;2.30;;;51.60;58.10;;;;;;6327621;22;20023;-79
2022/07/06 09:47:47;;;;;;;5.68;2.05;;;51.80;57.90;;;;;;6328492;22;20017;-80
2022/07/06 09:50:57;;;;;;;11.10;2.72;;;52.10;57.80;;;;;;6328130;22;20010;-79
2022/07/06 09:54:07;;;;;;;5.70;2.55;;;51.50;57.50;;;;;;6346313;22;20030;-79
2022/07/06 09:57:12;;;;;;;8.65;2.45;;;49.90;57.30;;;;;;6347734;22;20018;-79
2022/07/06 10:00:19;;;;;;;11.85;2.53;;;50.40;58.30;;;;;;6348222;22;20026;-78
2022/07/06 10:03:24;;;;;;;12.63;2.80;;;50.50;57.20;;;;;;6347143;22;20103;-80
2022/07/06 10:06:28;;;;;;;19.48;3.15;;;50.20;57.70;;;;;;6293367;22;20014;-79
2022/07/06 10:09:33;;;;;;;6.82;2.22;;;50.70;57.60;;;;;;6347188;22;20014;-81
2022/07/06 10:12:42;;;;;;;7.72;2.65;;;45.80;58.00;;;;;;6328100;22;20018;-78
2022/07/06 10:15:46;;;;;;;6.95;2.25;;;48.00;59.20;;;;;;6347442;22;20025;-79
2022/07/06 10:18:54;;;;;;;5.55;2.22;;;46.60;58.70;;;;;;6328427;22;20022;-78
2022/07/06 10:22:01;;;;;;;7.97;3.20;;;46.50;60.20;;;;;;6345505;22;20014;-78
2022/07/06 10:25:05;;;;;;;9.60;2.92;;;46.00;59.20;;;;;;6347606;22;20228;-80
2022/07/06 10:28:14;;;;;;;5.72;2.33;;;48.00;59.20;;;;;;6348007;22;20010;-81
2022/07/06 10:31:20;;;;;;;6.45;2.45;;;49.70;57.90;;;;;;6347691;22;20018;-79
2022/07/06 10:34:24;;;;;;;5.70;2.13;;;50.40;56.80;;;;;;6347990;22;20358;-81
2022/07/06 10:37:29;;;;;;;5.97;2.10;;;50.80;57.00;;;;;;6347152;22;20448;-80
2022/07/06 10:44:22;;;;;;;8.20;2.38;;;46.50;57.90;;;;;;6346866;22;20065;-79
2022/07/06 10:47:29;;;;;;;8.98;2.88;;;45.40;58.50;;;;;;6346787;22;20353;-79
2022/07/06 10:50:40;;;;;;;7.45;2.40;;;44.80;59.10;;;;;;6347425;22;20017;-79
2022/07/06 10:53:44;;;;;;;7.82;2.72;;;45.40;58.80;;;;;;6325927;22;20018;-78
2022/07/06 10:56:50;;;;;;;5.80;2.00;;;46.40;57.40;;;;;;6328249;22;20017;-79
2022/07/06 11:00:05;;;;;;;6.68;2.22;;;45.90;58.30;;;;;;6346575;22;20449;-79
2022/07/06 11:03:34;;;;;;;7.38;1.85;;;47.20;57.20;;;;;;6346345;22;20037;-79
2022/07/06 11:06:39;;;;;;;;;;;47.10;55.70;;;;;;6347496;22;20456;-79
2022/07/06 11:09:59;;;;;;;8.27;2.00;;;48.60;56.80;;;;;;6344716;22;19910;-78
2022/07/06 11:13:03;;;;;;;4.75;2.00;;;50.10;56.10;;;;;;6346277;22;20022;-78
2022/07/06 11:16:08;;;;;;;8.15;1.90;;;50.30;54.30;;;;;;6327538;22;20453;-77
2022/07/06 11:19:14;;;;;;;5.72;1.90;;;48.20;54.60;;;;;;6346491;22;20017;-77
2022/07/06 11:22:19;;;;;;;4.15;1.58;;;47.80;54.40;;;;;;6342741;22;20334;-78
2022/07/06 11:25:24;;;;;;;4.22;1.90;;;46.40;55.30;;;;;;6346147;22;20338;-78
2022/07/06 11:28:28;;;;;;;9.85;1.70;;;47.60;55.20;;;;;;6326639;22;20010;-79
2022/07/06 11:31:41;;;;;;;7.82;1.92;;;47.90;54.70;;;;;;6345658;22;20014;-78
2022/07/06 11:34:45;;;;;;;12.70;2.20;;;46.90;55.20;;;;;;6346116;22;20334;-78
2022/07/06 11:37:49;;;;;;;15.15;2.35;;;45.70;55.90;;;;;;6327105;22;20014;-78
2022/07/06 11:40:56;;;;;;;9.50;2.10;;;44.40;56.60;;;;;;6327388;22;20018;-77
2022/07/06 11:44:00;;;;;;;6.10;2.10;;;43.10;59.10;;;;;;6326681;22;20018;-78
2022/07/06 11:47:06;;;;;;;9.98;3.05;;;42.10;60.90;;;;;;6345992;22;20010;-77
2022/07/06 11:50:18;;;;;;;6.32;2.33;;;41.90;61.90;;;;;;6346171;22;20022;-78
2022/07/06 11:53:22;;;;;;;6.65;2.58;;;43.30;61.10;;;;;;6345142;22;20026;-79
2022/07/06 11:56:30;;;;;;;10.48;2.65;;;44.80;58.80;;;;;;6326995;22;20017;-78
2022/07/06 11:59:36;;;;;;;5.05;2.00;;;46.00;57.20;;;;;;6346444;22;20021;-80
2022/07/06 12:02:41;;;;;;;6.32;2.20;;;44.90;57.90;;;;;;6345918;22;20025;-79
2022/07/06 12:05:45;;;;;;;26.60;3.00;;;43.10;58.60;;;;;;6347072;22;20018;-83
2022/07/06 12:08:51;;;;;;;8.55;2.72;;;43.30;60.50;;;;;;6327180;22;20018;-79
2022/07/06 12:11:55;;;;;;;139.63;13.52;;;42.70;61.20;;;;;;6347039;22;20018;-80
2022/07/06 12:15:00;;;;;;;38.22;4.15;;;41.90;62.40;;;;;;6346457;22;20448;-77
2022/07/06 12:18:05;;;;;;;15.98;2.72;;;39.20;64.80;;;;;;6328513;22;20018;-79
2022/07/06 12:21:18;;;;;;;12.50;2.95;;;37.20;67.40;;;;;;6328965;22;20014;-78
2022/07/06 12:24:24;;;;;;;7.20;2.30;;;36.30;69.00;;;;;;6348102;22;20018;-79
2022/07/06 12:27:33;;;;;;;7.88;2.67;;;35.90;69.80;;;;;;6347991;22;20333;-78
2022/07/06 12:30:45;;;;;;;5.78;2.80;;;35.30;70.70;;;;;;6347146;22;20440;-76
2022/07/06 12:33:59;;;;;;;18.67;3.42;;;35.00;71.60;;;;;;6345956;22;20010;-79
2022/07/06 12:37:09;;;;;;;16.25;3.05;;;34.70;71.80;;;;;;6347743;22;20010;-80
2022/07/06 12:40:14;;;;;;;12.50;3.35;;;34.50;71.90;;;;;;6346626;22;20438;-78
2022/07/06 12:43:40;;;;;;;6.00;2.63;;;34.10;72.30;;;;;;6346069;22;20022;-79
2022/07/06 12:46:47;;;;;;;5.43;2.90;;;34.00;71.80;;;;;;6347465;22;20018;-81
2022/07/06 12:50:10;;;;;;;6.03;2.40;;;34.20;71.40;;;;;;6345523;22;20018;-80
2022/07/06 12:53:25;;;;;;;16.60;3.28;;;34.20;68.80;;;;;;6346995;22;20022;-80
2022/07/06 12:56:29;;;;;;;6.68;2.20;;;34.10;67.40;;;;;;6346629;22;20333;-79
2022/07/06 12:59:36;;;;;;;30.58;3.50;;;33.70;67.40;;;;;;6343736;22;20022;-79
2022/07/06 13:02:43;;;;;;;6.88;2.03;;;33.30;67.70;;;;;;6345697;22;20022;-81
2022/07/06 13:05:50;;;;;;;5.18;1.85;;;33.20;68.00;;;;;;6346950;22;20018;-81
2022/07/06 13:08:54;;;;;;;57.17;5.50;;;33.20;68.00;;;;;;6345297;22;20009;-78
2022/07/06 13:11:58;;;;;;;12.30;2.30;;;33.10;66.30;;;;;;6326139;22;20453;-81
2022/07/06 13:15:03;;;;;;;9.55;2.35;;;33.00;67.20;;;;;;6326428;22;20014;-80
2022/07/06 13:18:09;;;;;;;16.85;3.03;;;32.80;68.30;;;;;;6344884;22;20018;-79
2022/07/06 13:21:13;;;;;;;6.40;2.42;;;32.80;70.10;;;;;;6326275;22;20527;-79
2022/07/06 13:24:17;;;;;;;9.43;2.72;;;32.80;71.50;;;;;;6344095;22;20449;-78
2022/07/06 13:27:22;;;;;;;11.70;2.70;;;32.70;71.10;;;;;;6344206;22;20013;-83
2022/07/06 13:30:25;;;;;;;9.65;2.90;;;32.50;72.50;;;;;;6344680;22;20022;-77
2022/07/06 13:33:29;;;;;;;7.55;2.83;;;32.30;72.10;;;;;;6324879;22;20025;-77
2022/07/06 13:36:36;;;;;;;9.90;3.22;;;32.10;72.50;;;;;;6327675;22;20018;-79
2022/07/06 13:39:41;;;;;;;10.05;3.03;;;31.60;74.30;;;;;;6344331;22;20034;-79
2022/07/06 13:42:45;;;;;;;8.45;2.92;;;31.20;76.80;;;;;;6346067;22;20018;-81
2022/07/06 13:45:54;;;;;;;12.77;3.40;;;31.10;78.60;;;;;;6326484;22;20333;-79
2022/07/06 13:48:59;;;;;;;10.07;3.13;;;31.00;80.00;;;;;;6346497;22;20018;-80
2022/07/06 13:52:03;;;;;;;8.82;2.83;;;30.90;81.50;;;;;;6345469;22;20120;-83
2022/07/06 13:55:09;;;;;;;6.28;3.05;;;30.60;82.90;;;;;;6345253;22;20449;-81
2022/07/06 13:58:13;;;;;;;14.07;3.40;;;30.40;83.60;;;;;;6345420;22;20038;-81
2022/07/06 14:01:17;;;;;;;7.43;3.28;;;30.10;86.90;;;;;;6345203;22;20018;-83
2022/07/06 14:04:21;;;;;;;7.85;3.00;;;29.60;87.40;;;;;;6346139;22;20326;-80
2022/07/06 14:07:25;;;;;;;11.30;3.70;;;29.00;90.00;;;;;;6345406;22;20022;-81
2022/07/06 14:10:29;;;;;;;12.95;4.28;;;28.30;92.40;;;;;;6345087;22;20017;-80
2022/07/06 14:13:34;;;;;;;9.13;4.15;;;27.80;94.20;;;;;;6344151;22;20022;-81
2022/07/06 14:16:40;;;;;;;23.30;4.88;;;27.30;97.10;;;;;;6344800;22;20018;-80
2022/07/06 14:19:44;;;;;;;13.10;5.57;;;26.50;99.90;;;;;;6343813;22;20022;-81
2022/07/06 14:22:48;;;;;;;20.08;5.45;;;25.90;99.90;;;;;;6341107;22;20029;-81
2022/07/06 14:25:52;;;;;;;11.55;4.68;;;25.60;99.90;;;;;;6346933;22;20033;-81
2022/07/06 14:28:56;;;;;;;15.30;4.65;;;25.80;99.90;;;;;;6327755;22;20342;-79
2022/07/06 14:32:00;;;;;;;9.75;4.00;;;26.30;99.90;;;;;;6345883;22;20342;-82
2022/07/06 14:35:04;;;;;;;10.38;3.63;;;26.90;99.90;;;;;;6346588;22;20030;-81
2022/07/06 14:38:09;;;;;;;9.13;3.53;;;27.40;99.90;;;;;;6346765;22;20033;-81
2022/07/06 14:41:13;;;;;;;8.27;3.55;;;27.80;99.90;;;;;;6346327;22;20021;-80
2022/07/06 14:44:17;;;;;;;11.73;3.50;;;28.30;99.90;;;;;;6344439;22;20022;-81
2022/07/06 14:47:21;;;;;;;7.05;3.50;;;29.00;99.90;;;;;;6345949;22;20022;-81
2022/07/06 14:50:25;;;;;;;5.53;3.13;;;29.90;99.90;;;;;;6346362;22;20018;-81
2022/07/06 14:53:30;;;;;;;5.57;3.13;;;30.60;99.90;;;;;;6345532;22;20488;-81
2022/07/06 14:56:35;;;;;;;7.93;3.83;;;30.30;99.90;;;;;;6347168;22;20013;-81
2022/07/06 14:59:39;;;;;;;6.43;3.35;;;30.90;99.90;;;;;;6326705;22;20018;-78
2022/07/06 15:02:43;;;;;;;15.07;3.88;;;30.70;99.90;;;;;;6346229;22;20038;-79
2022/07/06 15:05:47;;;;;;;16.42;3.83;;;31.10;99.90;;;;;;6344607;22;20013;-80
2022/07/06 15:08:51;;;;;;;7.22;3.40;;;31.10;99.90;;;;;;6346383;22;20308;-80
2022/07/06 15:11:56;;;;;;;9.95;3.75;;;31.00;99.90;;;;;;6309563;22;20013;-81
2022/07/06 15:14:59;;;;;;;11.20;3.13;;;31.00;99.90;;;;;;6346230;22;20065;-79
2022/07/06 15:18:04;;;;;;;7.43;3.55;;;31.10;99.90;;;;;;6347174;22;20021;-79
2022/07/06 15:21:09;;;;;;;9.82;3.45;;;31.10;99.90;;;;;;6346541;22;20014;-80
2022/07/06 15:24:13;;;;;;;14.43;3.90;;;30.90;99.90;;;;;;6346437;22;20021;-80
2022/07/06 15:27:17;;;;;;;7.53;3.28;;;30.80;99.90;;;;;;6347786;22;20476;-80
2022/07/06 15:30:22;;;;;;;8.38;3.55;;;30.90;99.90;;;;;;6347381;22;20014;-80
2022/07/06 15:33:26;;;;;;;11.55;3.10;;;31.10;99.90;;;;;;6346560;22;20017;-80
2022/07/06 15:36:30;;;;;;;7.28;3.22;;;31.30;99.90;;;;;;6328498;22;20010;-81
2022/07/06 15:39:35;;;;;;;6.45;3.03;;;31.40;99.90;;;;;;6347735;22;20429;-81
2022/07/06 15:42:39;;;;;;;6.80;3.15;;;31.50;99.90;;;;;;6347289;22;20014;-81
2022/07/06 15:45:43;;;;;;;6.80;3.20;;;31.40;99.30;;;;;;6346009;22;20049;-81
2022/07/06 15:48:47;;;;;;;7.72;3.22;;;31.20;99.30;;;;;;6346214;22;20017;-81
2022/07/06 15:51:51;;;;;;;7.90;3.33;;;31.00;99.90;;;;;;6347447;22;20017;-81
2022/07/06 15:54:55;;;;;;;7.28;3.17;;;30.70;98.90;;;;;;6346881;22;20026;-81
2022/07/06 15:58:00;;;;;;;6.93;2.95;;;30.70;99.60;;;;;;6347327;22;20010;-79
2022/07/06 16:01:04;;;;;;;8.02;2.97;;;31.00;98.60;;;;;;6327958;22;20014;-79
2022/07/06 16:04:09;;;;;;;6.05;2.75;;;31.20;98.60;;;;;;6346410;22;20021;-80